createdAt,value
2023-04-03T00:00:21.096Z,5.96
2023-04-03T00:02:48.667Z,5.93
2023-04-03T00:05:16.458Z,5.93
2023-04-03T00:07:43.975Z,5.84
2023-04-03T00:10:12.030Z,5.84
2023-04-03T00:12:39.686Z,5.88
2023-04-03T00:15:08.282Z,5.85
2023-04-03T00:17:37.246Z,5.81
2023-04-03T00:20:05.790Z,5.81
2023-04-03T00:22:33.440Z,5.81
2023-04-03T00:25:01.044Z,5.80
2023-04-03T00:27:28.704Z,5.76
2023-04-03T00:29:56.264Z,5.76
2023-04-03T00:32:23.838Z,5.76
2023-04-03T00:34:52.767Z,5.79
2023-04-03T00:37:20.481Z,5.82
2023-04-03T00:39:48.162Z,5.80
2023-04-03T00:42:15.718Z,5.77
2023-04-03T00:45:20.463Z,5.74
2023-04-03T00:47:48.122Z,5.76
2023-04-03T00:50:17.596Z,5.76
2023-04-03T00:52:47.235Z,5.74
2023-04-03T00:55:15.787Z,5.72
2023-04-03T00:57:44.353Z,5.74
2023-04-03T01:00:14.583Z,5.75
2023-04-03T01:02:42.626Z,5.72
2023-04-03T01:05:12.648Z,5.70
2023-04-03T01:07:42.142Z,5.72
2023-04-03T01:10:14.785Z,5.68
2023-04-03T01:12:46.646Z,5.63
2023-04-03T01:15:18.874Z,5.65
2023-04-03T01:17:48.493Z,5.64
2023-04-03T01:21:09.849Z,5.67
2023-04-03T01:23:50.744Z,5.66
2023-04-03T01:26:18.443Z,5.67
2023-04-03T01:28:46.259Z,5.64
2023-04-03T01:31:21.985Z,5.64
2023-04-03T01:33:51.555Z,5.58
2023-04-03T01:36:23.222Z,5.57
2023-04-03T01:38:50.890Z,5.54
2023-04-03T01:41:19.184Z,5.49
2023-04-03T01:43:48.527Z,5.45
2023-04-03T01:46:16.338Z,5.43
2023-04-03T01:48:44.720Z,5.42
2023-04-03T01:51:14.032Z,5.37
2023-04-03T01:53:41.650Z,5.33
2023-04-03T01:56:09.526Z,5.35
2023-04-03T01:58:37.561Z,5.34
2023-04-03T02:01:05.652Z,5.30
2023-04-03T02:03:33.609Z,5.26
2023-04-03T02:06:01.310Z,5.22
2023-04-03T02:08:30.268Z,5.22
2023-04-03T02:10:57.911Z,5.24
2023-04-03T02:13:25.554Z,5.20
2023-04-03T02:15:53.126Z,5.18
2023-04-03T02:18:20.683Z,5.15
2023-04-03T02:20:49.240Z,5.13
2023-04-03T02:23:16.840Z,5.11
2023-04-03T02:25:46.629Z,5.12
2023-04-03T02:28:14.171Z,5.08
2023-04-03T02:30:41.801Z,5.02
2023-04-03T02:33:09.464Z,4.94
2023-04-03T02:35:37.876Z,4.91
2023-04-03T02:38:05.575Z,4.87
2023-04-03T02:40:33.942Z,4.86
2023-04-03T02:43:02.992Z,4.84
2023-04-03T02:45:30.693Z,4.79
2023-04-03T02:47:58.327Z,4.76
2023-04-03T02:50:25.901Z,4.73
2023-04-03T02:52:53.489Z,4.65
2023-04-03T02:55:21.051Z,4.61
2023-04-03T02:57:51.470Z,4.60
2023-04-03T03:00:21.762Z,4.54
2023-04-03T03:02:51.202Z,4.46
2023-04-03T03:05:19.327Z,4.47
2023-04-03T03:07:47.001Z,4.40
2023-04-03T03:10:14.710Z,4.37
2023-04-03T03:12:42.446Z,4.33
2023-04-03T03:15:10.574Z,4.31
2023-04-03T03:17:39.764Z,4.31
2023-04-03T03:20:08.853Z,4.29
2023-04-03T03:22:36.710Z,4.25
2023-04-03T03:25:06.909Z,4.28
2023-04-03T03:27:34.422Z,4.24
2023-04-03T03:30:02.046Z,4.20
2023-04-03T03:32:29.979Z,4.13
2023-04-03T03:34:58.883Z,4.08
2023-04-03T03:37:27.893Z,4.10
2023-04-03T03:39:55.762Z,4.11
2023-04-03T03:42:23.286Z,4.10
2023-04-03T03:44:52.704Z,4.08
2023-04-03T03:47:21.104Z,4.08
2023-04-03T03:49:48.859Z,4.10
2023-04-03T03:52:18.778Z,4.09
2023-04-03T03:54:46.431Z,4.13
2023-04-03T03:57:14.224Z,4.17
2023-04-03T03:59:42.701Z,4.19
2023-04-03T04:02:10.320Z,4.18
2023-04-03T04:04:37.979Z,4.17
2023-04-03T04:07:06.328Z,4.21
2023-04-03T04:09:36.548Z,4.24
2023-04-03T04:12:04.636Z,4.27
2023-04-03T04:14:33.928Z,4.24
2023-04-03T04:17:03.270Z,4.21
2023-04-03T04:19:31.155Z,4.21
2023-04-03T04:21:58.749Z,4.18
2023-04-03T04:24:26.752Z,4.18
2023-04-03T04:26:57.232Z,4.17
2023-04-03T04:29:26.179Z,4.15
2023-04-03T04:31:54.368Z,4.14
2023-04-03T04:34:23.645Z,4.17
2023-04-03T04:36:51.579Z,4.16
2023-04-03T04:39:19.293Z,4.15
2023-04-03T04:41:47.604Z,4.16
2023-04-03T04:44:16.841Z,4.16
2023-04-03T04:46:44.801Z,4.13
2023-04-03T04:49:12.425Z,4.07
2023-04-03T04:51:50.930Z,4.06
2023-04-03T04:54:23.143Z,4.04
2023-04-03T04:56:51.630Z,4.08
2023-04-03T04:59:21.963Z,4.09
2023-04-03T05:01:50.428Z,4.15
2023-04-03T05:04:19.209Z,4.17
2023-04-03T05:06:50.546Z,4.17
2023-04-03T05:09:23.237Z,4.16
2023-04-03T05:11:52.055Z,4.10
2023-04-03T05:14:25.121Z,4.01
2023-04-03T05:16:54.799Z,4.02
2023-04-03T05:19:25.056Z,4.00
2023-04-03T05:21:52.915Z,4.00
2023-04-03T05:24:20.790Z,3.97
2023-04-03T05:26:48.957Z,3.97
2023-04-03T05:29:17.335Z,3.93
2023-04-03T05:31:46.289Z,3.89
2023-04-03T05:34:15.017Z,3.97
2023-04-03T05:36:44.125Z,3.99
2023-04-03T05:39:13.404Z,3.99
2023-04-03T05:41:44.226Z,3.98
2023-04-03T05:44:11.901Z,4.06
2023-04-03T05:46:39.821Z,4.10
2023-04-03T05:49:11.437Z,4.14
2023-04-03T05:51:40.330Z,4.13
2023-04-03T05:54:27.760Z,4.14
2023-04-03T05:57:02.429Z,4.17
2023-04-03T05:59:30.651Z,4.12
2023-04-03T06:01:59.977Z,4.24
2023-04-03T06:04:29.007Z,4.28
2023-04-03T06:06:59.220Z,4.24
2023-04-03T06:09:29.788Z,4.26
2023-04-03T06:11:59.397Z,4.31
2023-04-03T06:14:27.610Z,4.43
2023-04-03T06:16:55.936Z,4.52
2023-04-03T06:19:24.019Z,4.51
2023-04-03T06:21:57.012Z,4.53
2023-04-03T06:24:26.116Z,4.59
2023-04-03T06:26:54.461Z,4.64
2023-04-03T06:29:22.568Z,4.72
2023-04-03T06:31:50.819Z,4.82
2023-04-03T06:34:18.969Z,4.84
2023-04-03T06:36:47.149Z,4.83
2023-04-03T06:39:18.266Z,4.85
2023-04-03T06:41:46.176Z,4.90
2023-04-03T06:44:16.614Z,4.84
2023-04-03T06:46:46.032Z,4.86
2023-04-03T06:49:13.996Z,4.87
2023-04-03T06:51:41.602Z,4.81
2023-04-03T06:54:09.940Z,4.79
2023-04-03T06:56:38.823Z,4.85
2023-04-03T06:59:06.410Z,4.86
2023-04-03T07:01:34.097Z,4.89
2023-04-03T07:04:01.630Z,4.87
2023-04-03T07:06:29.169Z,4.95
2023-04-03T07:08:57.401Z,5.10
2023-04-03T07:11:25.033Z,5.20
2023-04-03T07:13:54.640Z,5.27
2023-04-03T07:16:22.323Z,5.36
2023-04-03T07:18:50.257Z,5.47
2023-04-03T07:21:17.894Z,5.51
2023-04-03T07:23:45.778Z,5.66
2023-04-03T07:26:13.376Z,5.69
2023-04-03T07:28:42.239Z,5.73
2023-04-03T07:31:14.383Z,5.80
2023-04-03T07:33:42.869Z,5.79
2023-04-03T07:36:12.661Z,5.82
2023-04-03T07:38:40.571Z,5.83
2023-04-03T07:41:08.536Z,5.84
2023-04-03T07:43:36.202Z,5.70
2023-04-03T07:46:06.994Z,5.80
2023-04-03T07:48:36.022Z,5.81
2023-04-03T07:51:05.212Z,5.89
2023-04-03T07:53:33.382Z,5.99
2023-04-03T07:56:03.511Z,5.99
2023-04-03T07:58:31.910Z,6.10
2023-04-03T08:00:59.645Z,6.18
2023-04-03T08:03:27.546Z,6.27
2023-04-03T08:05:56.887Z,6.27
2023-04-03T08:08:25.382Z,6.38
2023-04-03T08:10:54.133Z,6.43
2023-04-03T08:13:23.198Z,6.57
2023-04-03T08:15:51.744Z,6.72
2023-04-03T08:18:19.415Z,6.92
2023-04-03T08:20:47.122Z,7.06
2023-04-03T08:23:17.638Z,7.19
2023-04-03T08:25:47.019Z,7.40
2023-04-03T08:28:14.671Z,7.26
2023-04-03T08:31:34.757Z,7.23
2023-04-03T08:34:02.312Z,7.53
2023-04-03T08:36:31.127Z,7.48
2023-04-03T08:38:59.427Z,7.54
2023-04-03T08:41:33.978Z,7.58
2023-04-03T08:44:12.773Z,7.51
2023-04-03T08:46:55.487Z,7.59
2023-04-03T08:49:28.720Z,7.60
2023-04-03T08:51:57.930Z,7.49
2023-04-03T08:54:32.952Z,7.54
2023-04-03T08:57:06.710Z,7.62
2023-04-03T08:59:36.543Z,7.66
2023-04-03T09:02:25.490Z,7.71
2023-04-03T09:04:53.173Z,7.77
2023-04-03T09:07:27.933Z,7.98
2023-04-03T09:09:57.952Z,7.93
2023-04-03T09:12:30.899Z,7.87
2023-04-03T09:15:08.414Z,8.03
2023-04-03T09:17:47.774Z,8.15
2023-04-03T09:20:24.834Z,8.28
2023-04-03T09:22:53.742Z,8.41
2023-04-03T09:25:24.533Z,8.62
2023-04-03T09:27:53.478Z,8.70
2023-04-03T09:30:24.389Z,8.77
2023-04-03T09:32:55.013Z,8.83
2023-04-03T09:35:32.742Z,8.92
2023-04-03T09:38:21.939Z,9.10
2023-04-03T09:40:52.421Z,8.99
2023-04-03T09:43:28.976Z,9.01
2023-04-03T09:45:58.281Z,8.99
2023-04-03T09:48:29.171Z,8.89
2023-04-03T09:51:00.446Z,8.89
2023-04-03T09:53:34.632Z,8.87
2023-04-03T09:56:04.226Z,9.00
2023-04-03T09:58:46.720Z,8.97
2023-04-03T10:01:27.375Z,9.08
2023-04-03T10:04:11.209Z,9.05
2023-04-03T10:06:44.289Z,9.03
2023-04-03T10:09:21.754Z,8.91
2023-04-03T10:12:05.634Z,9.02
2023-04-03T10:14:33.863Z,9.05
2023-04-03T10:17:12.145Z,9.08
2023-04-03T10:19:45.572Z,8.85
2023-04-03T10:22:20.447Z,8.98
2023-04-03T10:24:56.213Z,9.17
2023-04-03T10:27:34.336Z,8.84
2023-04-03T10:30:10.270Z,8.97
2023-04-03T10:32:54.667Z,9.14
2023-04-03T10:35:39.284Z,9.42
2023-04-03T10:38:17.250Z,9.44
2023-04-03T10:40:53.158Z,9.46
2023-04-03T10:43:31.236Z,9.70
2023-04-03T10:46:04.124Z,9.68
2023-04-03T10:48:45.821Z,9.64
2023-04-03T10:51:28.138Z,9.63
2023-04-03T10:54:02.248Z,9.70
2023-04-03T10:56:37.698Z,9.54
2023-04-03T10:59:18.307Z,9.69
2023-04-03T11:01:49.011Z,9.83
2023-04-03T11:04:20.380Z,10.09
2023-04-03T11:06:54.327Z,10.17
2023-04-03T11:09:27.858Z,10.42
2023-04-03T11:12:00.109Z,10.48
2023-04-03T11:14:29.933Z,10.59
2023-04-03T11:17:07.834Z,10.83
2023-04-03T11:19:41.055Z,10.80
2023-04-03T11:22:20.937Z,10.81
2023-04-03T11:24:58.868Z,10.83
2023-04-03T11:27:31.685Z,10.79
2023-04-03T11:30:00.896Z,10.72
2023-04-03T11:33:02.784Z,10.71
2023-04-03T11:35:31.255Z,10.40
2023-04-03T11:38:03.188Z,10.13
2023-04-03T11:40:33.741Z,10.31
2023-04-03T11:43:08.557Z,10.05
2023-04-03T11:45:51.482Z,10.29
2023-04-03T11:48:54.058Z,10.37
2023-04-03T11:51:43.114Z,10.26
2023-04-03T11:54:46.078Z,10.36
2023-04-03T11:57:47.824Z,10.67
2023-04-03T12:00:48.042Z,10.80
2023-04-03T12:03:52.554Z,10.85
2023-04-03T12:06:59.257Z,10.73
2023-04-03T12:09:46.489Z,10.35
2023-04-03T12:12:29.717Z,10.33
2023-04-03T12:14:57.883Z,10.31
2023-04-03T12:17:30.292Z,10.22
2023-04-03T12:19:58.078Z,10.28
2023-04-03T12:22:25.695Z,10.33
2023-04-03T12:24:54.916Z,10.36
2023-04-03T12:27:27.766Z,10.38
2023-04-03T12:30:02.047Z,9.85
2023-04-03T12:32:49.288Z,9.97
2023-04-03T12:35:26.085Z,9.90
2023-04-03T12:38:26.893Z,9.76
2023-04-03T12:41:00.761Z,9.93
2023-04-03T12:43:42.772Z,9.96
2023-04-03T12:46:17.004Z,9.87
2023-04-03T12:48:52.494Z,9.72
2023-04-03T12:51:23.867Z,9.63
2023-04-03T12:53:58.162Z,9.64
2023-04-03T12:56:27.566Z,9.61
2023-04-03T12:58:58.234Z,9.63
2023-04-03T13:01:28.042Z,9.62
2023-04-03T13:03:58.805Z,9.66
2023-04-03T13:06:29.957Z,9.78
2023-04-03T13:08:59.285Z,9.84
2023-04-03T13:11:28.966Z,9.83
2023-04-03T13:14:00.468Z,9.73
2023-04-03T13:16:28.876Z,9.77
2023-04-03T13:18:57.145Z,10.01
2023-04-03T13:21:28.300Z,10.19
2023-04-03T13:24:07.623Z,10.31
2023-04-03T13:26:40.011Z,10.36
2023-04-03T13:31:56.528Z,10.31
2023-04-03T13:34:27.386Z,10.11
2023-04-03T13:37:00.005Z,10.06
2023-04-03T13:39:29.967Z,10.08
2023-04-03T13:42:02.336Z,10.03
2023-04-03T13:44:35.442Z,10.09
2023-04-03T13:47:17.302Z,10.14
2023-04-03T13:49:46.991Z,10.12
2023-04-03T13:52:25.868Z,10.07
2023-04-03T13:54:56.505Z,10.08
2023-04-03T13:57:24.644Z,10.05
2023-04-03T13:59:53.969Z,10.06
2023-04-03T14:02:25.177Z,9.90
2023-04-03T14:04:59.568Z,9.96
2023-04-03T14:07:27.959Z,9.95
2023-04-03T14:09:55.941Z,9.85
2023-04-03T14:12:31.724Z,9.75
2023-04-03T14:15:03.125Z,9.59
2023-04-03T14:17:31.135Z,9.66
2023-04-03T14:19:59.923Z,9.90
2023-04-03T14:22:30.158Z,10.11
2023-04-03T14:24:58.269Z,10.29
2023-04-03T14:27:29.353Z,10.46
2023-04-03T14:29:58.556Z,10.65
2023-04-03T14:32:28.630Z,10.66
2023-04-03T14:34:57.956Z,10.62
2023-04-03T14:37:27.922Z,10.52
2023-04-03T14:39:56.928Z,10.42
2023-04-03T14:42:27.220Z,10.33
2023-04-03T14:44:55.199Z,10.43
2023-04-03T14:47:31.075Z,10.28
2023-04-03T14:50:01.813Z,10.53
2023-04-03T14:52:32.568Z,10.57
2023-04-03T14:55:01.261Z,10.82
2023-04-03T14:57:30.582Z,11.16
2023-04-03T14:59:58.544Z,11.32
2023-04-03T15:02:31.288Z,12.99
2023-04-03T15:05:01.638Z,15.59
2023-04-03T15:07:31.473Z,17.19
2023-04-03T15:09:59.158Z,16.89
2023-04-03T15:12:26.779Z,15.88
2023-04-03T15:15:01.159Z,15.15
2023-04-03T15:17:30.860Z,14.58
2023-04-03T15:19:58.467Z,13.99
2023-04-03T15:22:27.369Z,13.34
2023-04-03T15:24:55.276Z,12.90
2023-04-03T15:27:23.303Z,14.08
2023-04-03T15:29:50.916Z,17.06
2023-04-03T15:32:18.477Z,19.22
2023-04-03T15:34:46.153Z,20.73
2023-04-03T15:37:13.727Z,19.98
2023-04-03T15:39:42.852Z,19.49
2023-04-03T15:42:10.435Z,17.92
2023-04-03T15:44:38.137Z,16.55
2023-04-03T15:47:06.346Z,15.21
2023-04-03T15:49:34.996Z,13.92
2023-04-03T15:52:02.943Z,14.50
2023-04-03T15:54:31.090Z,16.04
2023-04-03T15:57:00.065Z,18.35
2023-04-03T15:59:29.862Z,19.14
2023-04-03T16:01:57.619Z,21.00
2023-04-03T16:04:25.356Z,22.10
2023-04-03T16:06:53.094Z,24.09
2023-04-03T16:09:20.766Z,24.72
2023-04-03T16:11:48.336Z,24.58
2023-04-03T16:14:17.527Z,22.93
2023-04-03T16:16:45.311Z,20.39
2023-04-03T16:19:13.518Z,18.93
2023-04-03T16:21:41.058Z,19.15
2023-04-03T16:24:08.729Z,18.82
2023-04-03T16:26:36.317Z,18.02
2023-04-03T16:29:03.903Z,18.23
2023-04-03T16:31:34.262Z,16.73
2023-04-03T16:34:02.438Z,15.60
2023-04-03T16:36:30.262Z,14.93
2023-04-03T16:38:57.855Z,14.22
2023-04-03T16:41:25.404Z,14.10
2023-04-03T16:43:53.013Z,15.33
2023-04-03T16:46:20.751Z,17.34
2023-04-03T16:48:49.895Z,19.38
2023-04-03T16:51:17.454Z,20.08
2023-04-03T16:53:44.992Z,20.99
2023-04-03T16:56:12.712Z,21.11
2023-04-03T16:58:40.254Z,22.08
2023-04-03T17:01:12.703Z,22.45
2023-04-03T17:03:40.736Z,21.25
2023-04-03T17:06:15.567Z,20.93
2023-04-03T17:08:43.442Z,20.49
2023-04-03T17:11:12.004Z,20.77
2023-04-03T17:13:39.643Z,21.35
2023-04-03T17:16:10.733Z,21.72
2023-04-03T17:18:39.206Z,21.81
2023-04-03T17:21:07.404Z,21.75
2023-04-03T17:23:38.255Z,21.44
2023-04-03T17:26:06.832Z,20.87
2023-04-03T17:28:34.456Z,20.03
2023-04-03T17:31:03.973Z,17.97
2023-04-03T17:33:32.033Z,16.95
2023-04-03T17:36:01.329Z,16.22
2023-04-03T17:38:30.456Z,15.48
2023-04-03T17:41:00.343Z,14.60
2023-04-03T17:43:28.692Z,13.96
2023-04-03T17:46:03.724Z,13.06
2023-04-03T17:48:32.190Z,12.15
2023-04-03T17:50:59.833Z,11.42
2023-04-03T17:53:27.747Z,11.18
2023-04-03T17:55:55.324Z,10.81
2023-04-03T17:58:24.204Z,10.61
2023-04-03T18:00:52.015Z,10.21
2023-04-03T18:03:19.526Z,9.74
2023-04-03T18:05:47.120Z,9.36
2023-04-03T18:08:14.747Z,9.12
2023-04-03T18:10:42.384Z,8.73
2023-04-03T18:13:10.630Z,8.41
2023-04-03T18:15:45.389Z,8.43
2023-04-03T18:18:13.195Z,8.24
2023-04-03T18:20:40.778Z,8.07
2023-04-03T18:23:08.411Z,7.93
2023-04-03T18:25:37.742Z,7.77
2023-04-03T18:28:06.650Z,7.61
2023-04-03T18:30:35.709Z,7.46
2023-04-03T18:33:04.827Z,7.32
2023-04-03T18:35:32.554Z,7.16
2023-04-03T18:38:00.143Z,7.05
2023-04-03T18:40:27.923Z,6.95
2023-04-03T18:42:55.482Z,6.84
2023-04-03T18:45:24.659Z,6.78
2023-04-03T18:47:52.842Z,6.68
2023-04-03T18:50:21.900Z,6.57
2023-04-03T18:52:50.634Z,6.55
2023-04-03T18:55:18.926Z,6.42
2023-04-03T18:57:46.528Z,6.40
2023-04-03T19:00:15.412Z,6.34
2023-04-03T19:02:43.069Z,6.27
2023-04-03T19:05:13.742Z,6.19
2023-04-03T19:07:44.630Z,6.15
2023-04-03T19:10:17.023Z,6.07
2023-04-03T19:12:46.314Z,5.99
2023-04-03T19:15:14.310Z,5.96
2023-04-03T19:17:41.980Z,5.89
2023-04-03T19:20:11.137Z,5.81
2023-04-03T19:22:39.411Z,5.80
2023-04-03T19:25:09.877Z,5.74
2023-04-03T19:27:38.293Z,5.69
2023-04-03T19:30:07.520Z,5.64
2023-04-03T19:32:35.307Z,5.56
2023-04-03T19:35:03.289Z,5.53
2023-04-03T19:37:30.849Z,5.46
2023-04-03T19:39:58.514Z,5.39
2023-04-03T19:42:29.852Z,5.33
2023-04-03T19:44:58.318Z,5.24
2023-04-03T19:47:26.304Z,5.17
2023-04-03T19:49:53.852Z,5.14
2023-04-03T19:52:21.418Z,5.10
2023-04-03T19:54:50.480Z,4.98
2023-04-03T19:57:19.297Z,4.88
2023-04-03T19:59:48.205Z,4.83
2023-04-03T20:02:16.737Z,4.81
2023-04-03T20:04:44.301Z,4.80
2023-04-03T20:07:12.601Z,4.78
2023-04-03T20:09:40.294Z,4.75
2023-04-03T20:12:09.460Z,4.73
2023-04-03T20:14:37.656Z,4.70
2023-04-03T20:17:06.602Z,4.64
2023-04-03T20:19:34.089Z,4.63
2023-04-03T20:22:01.837Z,4.59
2023-04-03T20:24:29.575Z,4.57
2023-04-03T20:26:58.539Z,4.55
2023-04-03T20:29:27.208Z,4.53
2023-04-03T20:31:55.151Z,4.56
2023-04-03T20:34:24.307Z,4.53
2023-04-03T20:36:53.023Z,4.51
2023-04-03T20:39:23.926Z,4.47
2023-04-03T20:41:51.725Z,4.47
2023-04-03T20:44:19.750Z,4.44
2023-04-03T20:46:53.011Z,4.36
2023-04-03T20:49:21.909Z,4.36
2023-04-03T20:51:51.530Z,4.31
2023-04-03T20:54:19.326Z,4.35
2023-04-03T20:56:48.193Z,4.30
2023-04-03T20:59:16.953Z,4.26
2023-04-03T21:01:44.603Z,4.18
2023-04-03T21:04:16.991Z,4.14
2023-04-03T21:07:22.680Z,4.09
2023-04-03T21:10:28.306Z,4.07
2023-04-03T21:13:33.624Z,4.04
2023-04-03T21:16:02.126Z,4.02
2023-04-03T21:18:43.993Z,4.00
2023-04-03T21:21:19.737Z,3.98
2023-04-03T21:23:48.694Z,3.93
2023-04-03T21:26:17.030Z,3.98
2023-04-03T21:28:44.773Z,3.91
2023-04-03T21:31:12.778Z,3.88
2023-04-03T21:33:42.338Z,3.79
2023-04-03T21:36:10.390Z,3.78
2023-04-03T21:38:37.947Z,3.73
2023-04-03T21:41:05.867Z,3.72
2023-04-03T21:43:33.398Z,3.70
2023-04-03T21:46:01.025Z,3.68
2023-04-03T21:48:30.491Z,3.65
2023-04-03T21:51:06.516Z,3.64
2023-04-03T21:53:35.393Z,3.65
2023-04-03T21:56:03.135Z,3.62
2023-04-03T21:58:32.244Z,3.59
2023-04-03T22:01:08.765Z,3.59
2023-04-03T22:03:36.286Z,3.54
2023-04-03T22:06:05.977Z,3.51
2023-04-03T22:08:33.610Z,3.53
2023-04-03T22:11:02.480Z,3.49
2023-04-03T22:13:30.344Z,3.44
2023-04-03T22:15:59.135Z,3.42
2023-04-03T22:18:27.115Z,3.45
2023-04-03T22:20:55.572Z,3.38
2023-04-03T22:23:24.485Z,3.34
2023-04-03T22:25:59.295Z,3.34
2023-04-03T22:28:26.998Z,3.31
2023-04-03T22:30:54.617Z,3.35
2023-04-03T22:33:22.126Z,3.29
2023-04-03T22:35:50.534Z,3.28
2023-04-03T22:38:18.648Z,3.31
2023-04-03T22:40:47.708Z,3.25
2023-04-03T22:43:15.238Z,3.19
2023-04-03T22:45:49.211Z,3.16
2023-04-03T22:48:17.382Z,3.18
2023-04-03T22:50:45.088Z,3.15
2023-04-03T22:53:12.597Z,3.12
2023-04-03T22:55:40.253Z,3.07
2023-04-03T22:58:09.146Z,3.01
2023-04-03T23:00:37.058Z,2.95
2023-04-03T23:03:04.803Z,3.00
2023-04-03T23:05:32.401Z,2.96
2023-04-03T23:07:59.998Z,2.92
2023-04-03T23:10:27.578Z,2.86
2023-04-03T23:12:55.287Z,2.84
2023-04-03T23:15:24.153Z,2.80
2023-04-03T23:17:51.895Z,2.81
2023-04-03T23:20:19.450Z,2.81
2023-04-03T23:22:47.039Z,2.74
2023-04-03T23:25:14.596Z,2.74
2023-04-03T23:27:42.167Z,2.70
2023-04-03T23:30:11.021Z,2.69
2023-04-03T23:32:39.929Z,2.69
2023-04-03T23:35:08.248Z,2.65
2023-04-03T23:37:35.885Z,2.64
2023-04-03T23:40:03.636Z,2.67
2023-04-03T23:42:31.203Z,2.62
2023-04-03T23:44:58.761Z,2.62
2023-04-03T23:47:26.331Z,2.57
2023-04-03T23:49:55.403Z,2.55
2023-04-03T23:52:22.978Z,2.55
2023-04-03T23:54:50.548Z,2.50
2023-04-03T23:57:18.069Z,2.50
2023-04-03T23:59:45.698Z,2.48
